Terminal Aerodrome Forecast
Issued by NWS

Home | Current Version | Previous Version | Graphics & Text | Print | Product List | Glossary On
Versions: 1 2 3 4 5 6 7 8 9 10 11 12 13 14 15 16 17 18 19
000
FTUS42 KMHX 180251 AAA
TAFISO
TAF AMD
KISO 180251Z 1803/1824 00000KT P6SM BKN250
     FM180600 VRB03KT 5SM BR VCSH BKN030
     FM181200 03005KT P6SM VCSH BKN025
     FM181800 03005KT P6SM VCTS BKN040CB
      AMD LTD TO CLD VIS AND WIND=

USA.gov is the U.S. government's official web portal to all federal, state and local government web resources and services.